Time;durP1;ratioP1;P1;durP2;ratioP2;P2;SDS_P1;SDS_P2;PMS_P1;PMS_P2;Temp;Humidity;BMP_temperature;BMP_pressure;BME280_temperature;BME280_humidity;BME280_pressure;Samples;Min_cycle;Max_cycle;Signal;HPM_P1;HPM_P2
2023/04/30 00:00:51;;;;;;;10.15;4.93;;;5.10;99.90;;;;;;5065006;28;20385;-71
2023/04/30 00:03:16;;;;;;;10.95;5.53;;;5.10;99.90;;;;;;5070462;28;20556;-71
2023/04/30 00:05:42;;;;;;;10.02;5.20;;;5.00;99.90;;;;;;5071100;28;20483;-71
2023/04/30 00:08:08;;;;;;;12.45;6.07;;;5.00;99.90;;;;;;5089311;28;20173;-71
2023/04/30 00:10:33;;;;;;;12.43;5.63;;;5.00;99.90;;;;;;5091698;28;20071;-70
2023/04/30 00:12:59;;;;;;;12.55;5.68;;;5.00;99.90;;;;;;5083889;28;20841;-71
2023/04/30 00:15:24;;;;;;;14.20;6.25;;;5.00;99.90;;;;;;5056042;28;20170;-71
2023/04/30 00:17:52;;;;;;;11.95;6.15;;;4.90;99.90;;;;;;5060414;28;20047;-71
2023/04/30 00:20:17;;;;;;;12.15;6.03;;;4.80;99.90;;;;;;5055502;28;20115;-71
2023/04/30 00:22:43;;;;;;;10.73;6.35;;;4.80;99.90;;;;;;5067372;28;20158;-70
2023/04/30 00:25:08;;;;;;;10.35;5.35;;;4.80;99.90;;;;;;5089594;28;20545;-71
2023/04/30 00:27:34;;;;;;;11.30;6.15;;;4.80;99.90;;;;;;5074141;28;20484;-71
2023/04/30 00:30:00;;;;;;;7.97;5.38;;;4.80;99.90;;;;;;5075209;28;20084;-71
2023/04/30 00:32:25;;;;;;;10.52;6.10;;;4.80;99.90;;;;;;5082379;28;20102;-71
2023/04/30 00:34:51;;;;;;;10.48;5.85;;;4.80;99.90;;;;;;5080814;28;20036;-71
2023/04/30 00:37:16;;;;;;;10.82;5.80;;;4.70;99.90;;;;;;5081442;28;20484;-70
2023/04/30 00:39:42;;;;;;;10.48;6.10;;;4.90;99.90;;;;;;5081764;28;21035;-71
2023/04/30 00:42:07;;;;;;;12.45;5.95;;;4.70;99.90;;;;;;5068077;28;20055;-71
2023/04/30 00:44:33;;;;;;;13.27;5.97;;;4.80;99.90;;;;;;5064883;28;20484;-70
2023/04/30 00:46:58;;;;;;;12.05;5.75;;;4.80;99.90;;;;;;5061712;28;20485;-71
2023/04/30 00:49:24;;;;;;;13.95;6.57;;;4.60;99.90;;;;;;5064526;28;20084;-70
2023/04/30 00:51:51;;;;;;;10.63;5.20;;;4.70;99.90;;;;;;5062852;28;21050;-70
2023/04/30 00:54:18;;;;;;;11.52;6.35;;;4.70;99.90;;;;;;5060968;28;20036;-70
2023/04/30 00:56:45;;;;;;;11.15;5.65;;;4.60;99.90;;;;;;5047903;28;20044;-71
2023/04/30 00:59:12;;;;;;;13.75;5.75;;;4.50;99.90;;;;;;5073934;28;20040;-71
2023/04/30 01:01:38;;;;;;;11.50;5.18;;;4.60;99.90;;;;;;5060328;28;20054;-71
2023/04/30 01:04:04;;;;;;;11.75;5.72;;;4.60;99.90;;;;;;5062352;28;20437;-71
2023/04/30 01:06:30;;;;;;;11.52;6.03;;;4.50;99.90;;;;;;5061415;28;20059;-71
2023/04/30 01:08:57;;;;;;;9.70;5.47;;;4.60;99.90;;;;;;5061551;28;20059;-70
2023/04/30 01:11:57;;;;;;;10.25;5.20;;;4.50;99.90;;;;;;5050984;28;20607;-71
2023/04/30 01:15:01;;;;;;;7.57;5.13;;;4.40;99.90;;;;;;5041251;28;20114;-70
2023/04/30 01:17:36;;;;;;;7.80;4.68;;;4.30;99.90;;;;;;5061131;28;20476;-71
2023/04/30 01:20:02;;;;;;;10.80;5.25;;;4.30;99.90;;;;;;5096594;28;20044;-71
2023/04/30 01:22:35;;;;;;;10.38;5.00;;;4.20;99.90;;;;;;5072393;28;20036;-70
2023/04/30 01:25:14;;;;;;;7.50;4.78;;;4.20;99.90;;;;;;5069595;28;20078;-71
2023/04/30 01:28:03;;;;;;;12.43;5.63;;;4.20;99.90;;;;;;5091639;28;20044;-71
2023/04/30 01:30:33;;;;;;;9.45;4.93;;;4.20;99.90;;;;;;5069039;28;20083;-71
2023/04/30 01:32:59;;;;;;;10.95;5.28;;;4.20;99.90;;;;;;5064168;28;20975;-70
2023/04/30 01:35:54;;;;;;;10.05;5.38;;;4.10;99.90;;;;;;5070351;28;20032;-70
2023/04/30 01:39:01;;;;;;;11.63;5.38;;;4.00;99.90;;;;;;5074971;28;20040;-70
2023/04/30 01:41:42;;;;;;;7.35;4.95;;;4.00;99.90;;;;;;4999311;28;20041;-71
2023/04/30 01:44:44;;;;;;;8.98;4.97;;;4.00;99.90;;;;;;4996559;28;20048;-70
2023/04/30 01:47:35;;;;;;;9.43;4.68;;;4.00;99.90;;;;;;5075704;28;20066;-71
2023/04/30 01:50:01;;;;;;;9.27;4.82;;;4.00;99.90;;;;;;5082799;28;20541;-70
2023/04/30 01:52:38;;;;;;;9.82;5.32;;;4.00;99.90;;;;;;5067740;28;20043;-71
2023/04/30 01:55:11;;;;;;;12.25;4.88;;;3.90;99.90;;;;;;5086703;28;20055;-71
2023/04/30 01:57:40;;;;;;;9.32;5.18;;;3.90;99.90;;;;;;5085629;28;20388;-70
2023/04/30 02:00:09;;;;;;;11.50;5.60;;;3.80;99.90;;;;;;5070576;28;20051;-70
2023/04/30 02:02:35;;;;;;;12.25;5.07;;;3.80;99.90;;;;;;5089838;28;20041;-70
2023/04/30 02:05:00;;;;;;;8.63;5.18;;;3.80;99.90;;;;;;5072130;28;20044;-70
2023/04/30 02:07:44;;;;;;;8.13;5.40;;;3.80;99.90;;;;;;5059119;28;20045;-71
2023/04/30 02:10:11;;;;;;;11.60;5.55;;;3.80;99.90;;;;;;5061598;28;20044;-71
2023/04/30 02:12:37;;;;;;;6.55;4.55;;;3.70;99.90;;;;;;5081726;28;20052;-71
2023/04/30 02:15:04;;;;;;;8.18;4.57;;;3.70;99.90;;;;;;5089470;28;20106;-71
2023/04/30 02:17:31;;;;;;;8.80;5.22;;;3.70;99.90;;;;;;5072349;28;20032;-71
2023/04/30 02:19:56;;;;;;;7.72;4.72;;;3.70;99.90;;;;;;5075306;28;20040;-71
2023/04/30 02:22:22;;;;;;;10.10;5.10;;;3.60;99.90;;;;;;5073224;28;20033;-70
2023/04/30 02:24:48;;;;;;;7.88;5.18;;;3.60;99.90;;;;;;5084009;28;20077;-71
2023/04/30 02:27:13;;;;;;;7.82;5.03;;;3.60;99.90;;;;;;5084102;28;20108;-71
2023/04/30 02:29:39;;;;;;;12.73;5.43;;;3.60;99.90;;;;;;5082439;28;20109;-71
2023/04/30 02:32:05;;;;;;;12.35;6.00;;;3.60;99.90;;;;;;5078415;28;20127;-71
2023/04/30 02:34:30;;;;;;;9.73;5.18;;;3.60;99.90;;;;;;5061183;28;20068;-70
2023/04/30 02:36:56;;;;;;;9.85;5.55;;;3.50;99.90;;;;;;5079824;28;20082;-70
2023/04/30 02:39:22;;;;;;;9.32;5.38;;;3.50;99.90;;;;;;5085472;28;20040;-70
2023/04/30 02:41:47;;;;;;;13.18;5.57;;;3.60;99.90;;;;;;5055483;28;20082;-70
2023/04/30 02:44:13;;;;;;;12.52;5.60;;;3.60;99.90;;;;;;5085213;28;20071;-70
2023/04/30 02:46:38;;;;;;;10.95;5.50;;;3.50;99.90;;;;;;5068969;28;20067;-70
2023/04/30 02:49:04;;;;;;;8.57;5.28;;;3.40;99.90;;;;;;5069774;28;20048;-71
2023/04/30 02:51:31;;;;;;;11.80;5.72;;;3.40;99.90;;;;;;5067903;28;20124;-70
2023/04/30 02:53:57;;;;;;;13.68;7.03;;;3.30;99.90;;;;;;5072186;28;20117;-70
2023/04/30 02:56:22;;;;;;;10.35;5.40;;;3.40;99.90;;;;;;5084522;28;20036;-70
2023/04/30 02:58:48;;;;;;;11.15;5.93;;;3.50;99.90;;;;;;5073440;28;20043;-71
2023/04/30 03:01:13;;;;;;;11.85;6.18;;;3.50;99.90;;;;;;5086634;28;20529;-71
2023/04/30 03:03:39;;;;;;;9.63;5.50;;;3.40;99.90;;;;;;5072661;28;20362;-70
2023/04/30 03:06:04;;;;;;;9.55;5.93;;;3.40;99.90;;;;;;5055482;28;20047;-70
2023/04/30 03:08:30;;;;;;;11.65;5.53;;;3.30;99.90;;;;;;5065814;28;20578;-70
2023/04/30 03:10:56;;;;;;;10.75;5.72;;;3.20;99.90;;;;;;5067932;28;20041;-70
2023/04/30 03:13:24;;;;;;;11.90;5.22;;;3.20;99.90;;;;;;5068455;28;20040;-71
2023/04/30 03:15:56;;;;;;;7.53;4.78;;;3.20;99.90;;;;;;5068172;28;20039;-70
2023/04/30 03:18:22;;;;;;;10.85;5.28;;;3.20;99.90;;;;;;5087489;28;20062;-71
2023/04/30 03:20:47;;;;;;;9.27;5.45;;;3.20;99.90;;;;;;5076540;28;20040;-70
2023/04/30 03:23:13;;;;;;;8.90;5.15;;;3.20;99.90;;;;;;5076447;28;20048;-70
2023/04/30 03:25:39;;;;;;;7.13;5.22;;;3.20;99.90;;;;;;5085140;28;20118;-71
2023/04/30 03:28:05;;;;;;;10.07;5.28;;;3.30;99.90;;;;;;5059607;28;20115;-70
2023/04/30 03:30:30;;;;;;;15.30;5.40;;;3.30;99.90;;;;;;5054712;28;20049;-70
2023/04/30 03:32:56;;;;;;;7.35;4.82;;;3.20;99.90;;;;;;5082407;28;20044;-70
2023/04/30 03:35:21;;;;;;;7.65;5.20;;;3.20;99.90;;;;;;5056543;28;20040;-70
2023/04/30 03:37:47;;;;;;;9.10;5.53;;;3.20;99.90;;;;;;5069006;28;20081;-70
2023/04/30 03:40:12;;;;;;;9.90;5.72;;;3.20;99.90;;;;;;5049141;28;20097;-70
2023/04/30 03:42:38;;;;;;;11.38;5.55;;;3.20;99.90;;;;;;5064527;28;20128;-70
2023/04/30 03:45:04;;;;;;;7.95;4.93;;;3.30;99.90;;;;;;5067033;28;20041;-71
2023/04/30 03:47:29;;;;;;;10.77;5.30;;;3.30;99.90;;;;;;5068179;28;20040;-70
2023/04/30 03:49:55;;;;;;;9.38;5.38;;;3.30;99.90;;;;;;5053169;28;20059;-70
2023/04/30 03:52:21;;;;;;;9.10;5.40;;;3.40;99.90;;;;;;5063656;28;20036;-70
2023/04/30 03:54:47;;;;;;;11.70;5.82;;;3.40;99.90;;;;;;5053179;28;20735;-70
2023/04/30 03:57:12;;;;;;;9.43;5.43;;;3.40;99.90;;;;;;5061656;28;20040;-70
2023/04/30 03:59:39;;;;;;;8.52;5.00;;;3.40;99.90;;;;;;5049292;28;20032;-70
2023/04/30 04:02:06;;;;;;;8.77;5.78;;;3.50;99.90;;;;;;5069049;28;20050;-70
2023/04/30 04:04:32;;;;;;;9.98;5.68;;;3.50;99.90;;;;;;5085478;28;20036;-70
2023/04/30 04:06:58;;;;;;;10.55;5.68;;;3.50;99.90;;;;;;5082317;28;20372;-70
2023/04/30 04:09:23;;;;;;;11.48;5.93;;;3.50;99.90;;;;;;5124025;27;20051;-70
2023/04/30 04:11:49;;;;;;;8.75;5.18;;;3.50;99.90;;;;;;5083686;28;20062;-70
2023/04/30 04:14:15;;;;;;;12.48;6.15;;;3.60;99.90;;;;;;5082865;28;20036;-70
2023/04/30 04:16:41;;;;;;;8.98;5.57;;;3.50;99.90;;;;;;5073091;28;20044;-70
2023/04/30 04:19:07;;;;;;;10.75;5.60;;;3.50;99.90;;;;;;5078016;28;20377;-71
2023/04/30 04:21:32;;;;;;;9.40;6.03;;;3.50;99.90;;;;;;5074675;28;20080;-70
2023/04/30 04:23:58;;;;;;;11.20;5.53;;;3.50;99.90;;;;;;5079196;28;20060;-70
2023/04/30 04:26:24;;;;;;;9.77;5.22;;;3.50;99.90;;;;;;5078068;28;20378;-70
2023/04/30 04:28:50;;;;;;;9.23;5.60;;;3.50;99.90;;;;;;5053452;28;20044;-71
2023/04/30 04:31:16;;;;;;;8.75;5.47;;;3.50;99.90;;;;;;5080714;28;20489;-71
2023/04/30 04:33:43;;;;;;;13.80;6.55;;;3.50;99.90;;;;;;5066048;28;20033;-70
2023/04/30 04:36:08;;;;;;;10.60;5.57;;;3.50;99.90;;;;;;5066967;28;20442;-70
2023/04/30 04:38:34;;;;;;;10.45;5.90;;;3.50;99.90;;;;;;5076742;28;20029;-70
2023/04/30 04:41:00;;;;;;;10.52;5.80;;;3.50;99.90;;;;;;5064135;28;20041;-71
2023/04/30 04:43:25;;;;;;;9.40;5.53;;;3.70;99.90;;;;;;5065410;28;20512;-71
2023/04/30 04:45:51;;;;;;;8.50;5.35;;;3.70;99.90;;;;;;5066844;28;20496;-70
2023/04/30 04:48:17;;;;;;;9.23;5.13;;;3.70;99.90;;;;;;5058877;28;20369;-71
2023/04/30 04:50:42;;;;;;;13.13;5.38;;;3.70;99.90;;;;;;5048873;28;20048;-71
2023/04/30 04:53:08;;;;;;;12.98;5.72;;;3.70;99.90;;;;;;5062623;28;20047;-70
2023/04/30 04:55:34;;;;;;;8.70;5.00;;;3.80;99.90;;;;;;5062989;28;20040;-70
2023/04/30 04:58:00;;;;;;;10.75;5.80;;;3.80;99.90;;;;;;5069620;28;20082;-70
2023/04/30 05:00:26;;;;;;;12.40;5.85;;;4.00;99.90;;;;;;5078836;28;20064;-71
2023/04/30 05:02:52;;;;;;;15.77;6.90;;;4.00;99.90;;;;;;5060835;28;20044;-71
2023/04/30 05:05:17;;;;;;;15.35;7.10;;;4.10;99.90;;;;;;5055560;28;20086;-70
2023/04/30 05:07:43;;;;;;;11.18;6.03;;;4.20;99.90;;;;;;5065078;28;20365;-70
2023/04/30 05:10:09;;;;;;;12.27;6.45;;;4.30;99.90;;;;;;5050038;28;20028;-70
2023/04/30 05:12:34;;;;;;;12.70;6.38;;;4.30;99.90;;;;;;5047540;28;20117;-70
2023/04/30 05:15:00;;;;;;;11.50;6.43;;;4.30;99.90;;;;;;5049709;28;20076;-70
2023/04/30 05:17:25;;;;;;;10.23;5.78;;;4.40;99.90;;;;;;5064071;28;20039;-70
2023/04/30 05:19:52;;;;;;;16.55;6.80;;;4.50;99.90;;;;;;5053936;28;20445;-70
2023/04/30 05:22:17;;;;;;;14.20;6.57;;;4.50;99.90;;;;;;5072746;28;20072;-70
2023/04/30 05:24:43;;;;;;;10.90;6.10;;;4.60;99.90;;;;;;5058026;28;20181;-70
2023/04/30 05:27:08;;;;;;;11.70;6.47;;;4.70;99.90;;;;;;5077439;28;20050;-71
2023/04/30 05:29:34;;;;;;;10.75;6.38;;;4.80;99.90;;;;;;5062574;28;20657;-71
2023/04/30 05:32:00;;;;;;;13.52;6.07;;;4.90;99.90;;;;;;5064093;28;20047;-70
2023/04/30 05:34:26;;;;;;;13.10;6.28;;;5.20;99.90;;;;;;5059385;28;20181;-70
2023/04/30 05:36:52;;;;;;;10.95;6.55;;;5.40;99.90;;;;;;5068607;28;20078;-71
2023/04/30 05:39:17;;;;;;;10.77;6.10;;;5.60;99.90;;;;;;5076525;28;20484;-71
2023/04/30 05:41:43;;;;;;;14.60;7.30;;;5.70;99.90;;;;;;5065117;28;20233;-71
2023/04/30 05:44:09;;;;;;;14.48;7.60;;;5.80;99.90;;;;;;5071521;28;20032;-70
2023/04/30 05:46:34;;;;;;;17.40;7.60;;;5.90;99.90;;;;;;5066168;28;20032;-70
2023/04/30 05:49:00;;;;;;;14.70;7.70;;;6.00;99.90;;;;;;5073130;28;20040;-69
2023/04/30 05:51:26;;;;;;;15.05;7.97;;;6.20;99.90;;;;;;5068121;28;20115;-70
2023/04/30 05:53:52;;;;;;;14.85;6.38;;;6.40;99.90;;;;;;5063272;28;20230;-70
2023/04/30 05:56:18;;;;;;;14.52;7.80;;;6.60;99.90;;;;;;5063567;28;20072;-70
2023/04/30 05:58:43;;;;;;;11.75;6.45;;;6.70;99.90;;;;;;5073419;28;20497;-69
2023/04/30 06:01:10;;;;;;;13.35;6.78;;;6.90;99.90;;;;;;5072809;28;20588;-71
2023/04/30 06:03:36;;;;;;;15.20;6.57;;;7.00;99.90;;;;;;5063088;28;20088;-70
2023/04/30 06:06:02;;;;;;;11.15;6.32;;;7.10;99.90;;;;;;5081600;28;20051;-69
2023/04/30 06:08:28;;;;;;;13.77;6.50;;;7.20;99.90;;;;;;5060206;28;20093;-70
2023/04/30 06:10:54;;;;;;;10.80;5.80;;;7.20;99.90;;;;;;5072095;28;20048;-71
2023/04/30 06:13:20;;;;;;;11.85;5.78;;;7.20;99.90;;;;;;5069011;28;20039;-69
2023/04/30 06:15:46;;;;;;;11.57;5.50;;;7.30;99.90;;;;;;5074018;28;20437;-70
2023/04/30 06:18:13;;;;;;;10.10;5.53;;;7.40;99.90;;;;;;5068525;28;20185;-69
2023/04/30 06:20:38;;;;;;;14.25;5.35;;;7.50;99.90;;;;;;5058801;28;20040;-70
2023/04/30 06:23:04;;;;;;;11.30;5.70;;;7.60;99.90;;;;;;5068843;28;20617;-69
2023/04/30 06:25:30;;;;;;;13.65;5.72;;;7.70;99.90;;;;;;5070612;28;20045;-69
2023/04/30 06:27:55;;;;;;;8.95;5.40;;;7.80;99.90;;;;;;5074231;28;20044;-70
2023/04/30 06:30:21;;;;;;;12.43;5.53;;;7.90;99.90;;;;;;5072395;28;20405;-70
2023/04/30 06:32:46;;;;;;;9.77;5.20;;;8.00;99.90;;;;;;5052028;28;20515;-70
2023/04/30 06:35:12;;;;;;;12.60;5.00;;;8.00;99.90;;;;;;5074754;28;20214;-69
2023/04/30 06:37:38;;;;;;;17.00;5.45;;;8.00;99.90;;;;;;5075232;28;20047;-69
2023/04/30 06:40:05;;;;;;;7.80;4.60;;;8.10;99.90;;;;;;5073833;28;20028;-69
2023/04/30 06:42:33;;;;;;;10.52;4.90;;;8.20;99.90;;;;;;5077927;28;20467;-69
2023/04/30 06:45:02;;;;;;;13.77;4.75;;;8.30;99.90;;;;;;5080238;28;20089;-70
2023/04/30 06:47:37;;;;;;;13.25;5.53;;;8.40;99.90;;;;;;5075385;28;20052;-70
2023/04/30 06:50:04;;;;;;;10.07;4.43;;;8.80;99.90;;;;;;5078346;28;20048;-69
2023/04/30 06:52:30;;;;;;;10.80;4.55;;;9.10;99.30;;;;;;5072369;28;20040;-70
2023/04/30 06:54:55;;;;;;;10.50;4.15;;;9.20;99.40;;;;;;5071868;28;20055;-70
2023/04/30 06:57:21;;;;;;;9.18;4.30;;;9.40;98.90;;;;;;5074861;28;20181;-70
2023/04/30 06:59:47;;;;;;;11.65;4.35;;;9.90;98.90;;;;;;5071580;28;20037;-71
2023/04/30 07:02:12;;;;;;;10.20;4.07;;;10.00;98.00;;;;;;5073812;28;20486;-70
2023/04/30 07:04:38;;;;;;;9.88;4.20;;;10.20;97.90;;;;;;5073032;28;20165;-70
2023/04/30 07:07:03;;;;;;;7.82;3.55;;;10.50;96.60;;;;;;5079116;28;20115;-70
2023/04/30 07:09:29;;;;;;;18.05;3.83;;;10.70;96.60;;;;;;5072096;28;20047;-70
2023/04/30 07:11:57;;;;;;;9.32;3.28;;;10.80;95.90;;;;;;5060810;28;20041;-71
2023/04/30 07:14:23;;;;;;;9.50;3.25;;;11.00;95.60;;;;;;5070718;28;20040;-69
2023/04/30 07:16:52;;;;;;;8.57;3.33;;;11.10;95.00;;;;;;5075832;28;20036;-68
2023/04/30 07:19:17;;;;;;;8.70;3.17;;;11.30;92.60;;;;;;5072775;28;20133;-68
2023/04/30 07:21:43;;;;;;;9.32;3.10;;;11.50;92.50;;;;;;5069939;28;20074;-68
2023/04/30 07:24:08;;;;;;;11.93;3.67;;;11.50;91.70;;;;;;5084722;28;20085;-68
2023/04/30 07:26:35;;;;;;;9.15;3.28;;;11.80;91.30;;;;;;5084751;28;20040;-68
2023/04/30 07:29:01;;;;;;;6.38;3.00;;;11.90;90.50;;;;;;5079485;28;20059;-68
2023/04/30 07:31:26;;;;;;;7.85;3.33;;;12.10;89.70;;;;;;5070632;28;20404;-70
2023/04/30 07:33:54;;;;;;;8.38;2.80;;;12.50;88.20;;;;;;5060547;28;20039;-68
2023/04/30 07:36:19;;;;;;;6.97;2.60;;;12.70;84.20;;;;;;5074742;28;20119;-67
2023/04/30 07:38:45;;;;;;;6.78;2.67;;;12.80;82.70;;;;;;5087199;28;20123;-68
2023/04/30 07:41:10;;;;;;;12.75;2.90;;;12.80;80.00;;;;;;5080151;28;20040;-68
2023/04/30 07:43:36;;;;;;;9.23;2.55;;;12.70;78.30;;;;;;5076809;28;20144;-69
2023/04/30 07:46:02;;;;;;;11.60;2.80;;;12.80;77.40;;;;;;5055992;28;20686;-67
2023/04/30 07:48:28;;;;;;;7.28;2.70;;;12.70;75.70;;;;;;5073666;28;20048;-69
2023/04/30 07:50:55;;;;;;;8.85;3.10;;;12.70;74.90;;;;;;5072329;28;20090;-67
2023/04/30 07:53:21;;;;;;;9.38;3.17;;;12.70;73.90;;;;;;5072444;28;20115;-67
2023/04/30 07:55:47;;;;;;;5.82;2.60;;;12.60;72.90;;;;;;5082420;28;20154;-68
2023/04/30 07:58:12;;;;;;;8.80;2.50;;;12.50;72.60;;;;;;5087822;28;20617;-67
2023/04/30 08:00:38;;;;;;;8.95;3.15;;;12.60;72.70;;;;;;5086534;28;20480;-67
2023/04/30 08:03:04;;;;;;;9.15;2.72;;;12.50;72.40;;;;;;5085178;28;20040;-67
2023/04/30 08:05:30;;;;;;;9.25;2.75;;;12.50;72.10;;;;;;5071217;28;20070;-68
2023/04/30 08:07:59;;;;;;;6.50;2.58;;;12.50;71.70;;;;;;5082166;28;20396;-70
2023/04/30 08:10:32;;;;;;;11.75;2.80;;;12.60;71.10;;;;;;5057820;28;20036;-73
2023/04/30 08:13:00;;;;;;;8.93;2.63;;;12.50;69.80;;;;;;5061449;28;20052;-68
2023/04/30 08:15:27;;;;;;;9.43;3.00;;;12.50;69.50;;;;;;5065363;28;20404;-71
2023/04/30 08:17:52;;;;;;;5.65;2.38;;;12.40;69.40;;;;;;5063975;28;20495;-69
2023/04/30 08:20:18;;;;;;;8.85;2.58;;;12.60;69.00;;;;;;5062291;28;20029;-69
2023/04/30 08:22:47;;;;;;;9.52;2.72;;;12.50;69.10;;;;;;5093153;28;20423;-68
2023/04/30 08:25:15;;;;;;;10.40;2.58;;;12.60;69.20;;;;;;5078356;28;20541;-70
2023/04/30 08:27:41;;;;;;;5.75;3.00;;;12.60;68.40;;;;;;5075617;28;20050;-70
2023/04/30 08:30:08;;;;;;;11.73;2.72;;;12.60;68.20;;;;;;5057315;28;20376;-70
2023/04/30 08:32:35;;;;;;;9.05;3.03;;;12.80;67.60;;;;;;5086094;28;20040;-69
2023/04/30 08:35:05;;;;;;;10.85;3.00;;;12.70;67.40;;;;;;5091997;28;20123;-69
2023/04/30 08:37:31;;;;;;;11.35;2.95;;;13.00;67.00;;;;;;5080197;28;20576;-70
2023/04/30 08:39:57;;;;;;;7.20;2.83;;;13.30;66.70;;;;;;5070264;28;20047;-68
2023/04/30 08:42:37;;;;;;;9.77;3.15;;;13.30;66.70;;;;;;5084661;28;20036;-70
2023/04/30 08:45:04;;;;;;;8.93;2.90;;;13.10;64.90;;;;;;5067715;28;20375;-69
2023/04/30 08:47:30;;;;;;;5.75;2.80;;;13.20;67.00;;;;;;5077163;28;20048;-70
2023/04/30 08:49:56;;;;;;;7.05;2.63;;;13.30;66.20;;;;;;5051813;28;20040;-69
2023/04/30 08:52:21;;;;;;;7.93;3.00;;;13.70;66.60;;;;;;5071832;28;20683;-70
2023/04/30 08:54:49;;;;;;;6.55;2.55;;;13.80;66.20;;;;;;5081670;28;20433;-70
2023/04/30 08:57:14;;;;;;;10.85;2.90;;;14.00;65.40;;;;;;5090297;28;20508;-69
2023/04/30 08:59:43;;;;;;;9.80;3.47;;;14.00;65.10;;;;;;5082127;28;20218;-69
2023/04/30 09:02:09;;;;;;;5.32;2.20;;;14.10;64.20;;;;;;5068257;28;20411;-69
2023/04/30 09:04:35;;;;;;;9.70;2.60;;;14.10;64.00;;;;;;5084609;28;20032;-69
2023/04/30 09:07:02;;;;;;;5.50;2.17;;;14.10;63.80;;;;;;5077555;28;20093;-70
2023/04/30 09:09:32;;;;;;;9.55;3.00;;;14.10;63.10;;;;;;5084275;28;20036;-70
2023/04/30 09:12:18;;;;;;;7.53;2.35;;;14.00;62.80;;;;;;5080874;28;20040;-70
2023/04/30 09:15:03;;;;;;;10.50;2.42;;;14.40;60.10;;;;;;5078278;28;20059;-70
2023/04/30 09:17:30;;;;;;;7.25;2.65;;;14.90;59.30;;;;;;5078654;28;20085;-70
2023/04/30 09:20:09;;;;;;;4.97;2.10;;;15.30;61.40;;;;;;5069870;28;20048;-68
2023/04/30 09:22:36;;;;;;;7.75;2.90;;;15.60;58.20;;;;;;5087391;28;20036;-67
2023/04/30 09:25:02;;;;;;;8.30;2.35;;;15.40;61.20;;;;;;5072324;28;20040;-68
2023/04/30 09:27:28;;;;;;;5.55;2.38;;;15.60;61.40;;;;;;5074169;28;20044;-68
2023/04/30 09:29:53;;;;;;;5.95;2.50;;;15.80;60.90;;;;;;5085008;28;20460;-67
2023/04/30 09:32:19;;;;;;;6.05;2.70;;;15.50;59.90;;;;;;5086789;28;20533;-68
2023/04/30 09:34:45;;;;;;;9.27;2.80;;;15.90;59.00;;;;;;5056147;28;20643;-66
2023/04/30 09:37:11;;;;;;;8.98;2.53;;;16.60;57.20;;;;;;5083039;28;20032;-68
2023/04/30 09:39:55;;;;;;;6.03;2.35;;;17.30;54.30;;;;;;5071430;28;20039;-67
2023/04/30 09:42:21;;;;;;;6.22;2.47;;;17.00;50.10;;;;;;5077876;28;20066;-67
2023/04/30 09:44:47;;;;;;;6.40;2.95;;;16.20;54.80;;;;;;5077322;28;20036;-67
2023/04/30 09:47:18;;;;;;;7.57;2.50;;;16.30;55.60;;;;;;5084605;28;20077;-67
2023/04/30 09:49:50;;;;;;;6.60;2.47;;;16.10;54.60;;;;;;5079976;28;20116;-67
2023/04/30 09:52:17;;;;;;;7.20;2.70;;;16.00;54.50;;;;;;5086360;28;20036;-68
2023/04/30 09:54:44;;;;;;;7.15;2.53;;;15.70;54.10;;;;;;5087054;28;20480;-68
2023/04/30 09:57:12;;;;;;;8.93;2.53;;;15.80;54.10;;;;;;5074029;28;20039;-67
2023/04/30 09:59:44;;;;;;;5.53;2.28;;;15.80;54.10;;;;;;5085049;28;20062;-67
2023/04/30 10:02:14;;;;;;;5.45;2.40;;;16.30;52.80;;;;;;5084673;28;20044;-68
2023/04/30 10:04:43;;;;;;;7.20;2.25;;;16.60;50.50;;;;;;5081846;28;20072;-67
2023/04/30 10:07:15;;;;;;;7.63;2.40;;;17.30;49.60;;;;;;5083801;28;20455;-67
2023/04/30 10:09:50;;;;;;;5.45;2.60;;;18.20;47.50;;;;;;5063538;28;20131;-69
2023/04/30 10:12:30;;;;;;;7.10;2.67;;;19.40;42.40;;;;;;5073732;28;20056;-67
2023/04/30 10:15:06;;;;;;;;;;;19.90;44.60;;;;;;5076260;28;20048;-67
2023/04/30 10:17:36;;;;;;;4.53;2.33;;;20.60;42.70;;;;;;5079829;28;19916;-67
2023/04/30 10:20:05;;;;;;;3.90;2.13;;;21.00;42.70;;;;;;5073674;28;20357;-68
2023/04/30 10:22:33;;;;;;;6.20;2.53;;;21.00;42.30;;;;;;5084029;28;20332;-67
2023/04/30 10:25:01;;;;;;;10.32;2.40;;;20.40;42.90;;;;;;5071140;28;20504;-69
2023/04/30 10:27:27;;;;;;;7.60;2.42;;;20.00;44.10;;;;;;5077233;28;20081;-69
2023/04/30 10:29:54;;;;;;;4.43;2.45;;;19.60;43.40;;;;;;5069099;28;20039;-69
2023/04/30 10:32:22;;;;;;;6.65;2.35;;;19.50;43.70;;;;;;5074786;28;20094;-67
2023/04/30 10:35:14;;;;;;;6.65;2.58;;;19.10;42.90;;;;;;5068707;28;20039;-67
2023/04/30 10:37:48;;;;;;;9.30;2.60;;;18.60;42.10;;;;;;5075289;28;20494;-68
2023/04/30 10:40:14;;;;;;;5.63;2.42;;;18.30;45.30;;;;;;5069349;28;20048;-67
2023/04/30 10:42:47;;;;;;;6.28;2.85;;;17.60;45.80;;;;;;5078514;28;20073;-68
2023/04/30 10:45:15;;;;;;;6.20;2.28;;;17.50;46.00;;;;;;5072763;28;20089;-68
2023/04/30 10:47:42;;;;;;;4.38;2.42;;;17.20;47.90;;;;;;5096557;27;20044;-68
2023/04/30 10:50:08;;;;;;;4.65;2.75;;;17.00;48.00;;;;;;5056156;28;20090;-66
2023/04/30 10:52:33;;;;;;;8.63;3.05;;;16.60;47.90;;;;;;5072741;28;20507;-68
2023/04/30 10:55:04;;;;;;;8.43;3.25;;;16.20;49.10;;;;;;5059198;28;20130;-67
2023/04/30 10:57:29;;;;;;;8.63;2.88;;;16.30;50.10;;;;;;5069719;28;20090;-66
2023/04/30 11:00:11;;;;;;;7.88;3.30;;;16.20;50.10;;;;;;5055758;28;20048;-68
2023/04/30 11:02:42;;;;;;;6.97;3.08;;;16.00;50.50;;;;;;5070051;28;20788;-67
2023/04/30 11:05:17;;;;;;;4.95;2.53;;;15.90;50.40;;;;;;5054828;28;20956;-67
2023/04/30 11:07:50;;;;;;;6.45;2.83;;;15.70;50.30;;;;;;5070557;28;20101;-67
2023/04/30 11:10:20;;;;;;;5.43;2.75;;;15.60;49.90;;;;;;5060849;28;20055;-67
2023/04/30 11:12:51;;;;;;;6.30;3.38;;;15.70;51.90;;;;;;5082419;28;20068;-68
2023/04/30 11:15:19;;;;;;;5.85;2.85;;;15.50;51.60;;;;;;5062907;28;20659;-69
2023/04/30 11:17:47;;;;;;;6.60;2.80;;;15.60;51.80;;;;;;5062675;28;20032;-68
2023/04/30 11:20:17;;;;;;;5.55;2.47;;;15.60;51.80;;;;;;5054815;28;20056;-68
2023/04/30 11:22:44;;;;;;;7.65;2.97;;;15.60;51.60;;;;;;5066534;28;20036;-68
2023/04/30 11:25:14;;;;;;;8.35;3.10;;;15.60;51.80;;;;;;5064497;28;20055;-68
2023/04/30 11:27:43;;;;;;;6.85;2.90;;;15.60;52.50;;;;;;5070322;28;20055;-68
2023/04/30 11:30:14;;;;;;;5.75;3.28;;;15.60;52.60;;;;;;5061896;28;20044;-68
2023/04/30 11:32:46;;;;;;;5.43;2.72;;;15.60;52.00;;;;;;5066837;28;20112;-69
2023/04/30 11:35:13;;;;;;;5.65;2.58;;;15.70;52.40;;;;;;5055657;28;20032;-68
2023/04/30 11:37:43;;;;;;;7.88;2.63;;;15.80;51.80;;;;;;5075639;28;20032;-67
2023/04/30 11:40:10;;;;;;;5.75;2.45;;;15.90;52.50;;;;;;5052797;28;20051;-67
2023/04/30 11:42:42;;;;;;;5.70;2.28;;;16.00;52.40;;;;;;5066506;28;20052;-69
2023/04/30 11:45:08;;;;;;;5.22;2.30;;;16.10;51.90;;;;;;5055469;28;20044;-67
2023/04/30 11:47:49;;;;;;;5.93;2.30;;;16.10;52.30;;;;;;5061928;28;20044;-67
2023/04/30 11:50:25;;;;;;;7.13;2.63;;;16.10;52.60;;;;;;5055452;28;20037;-67
2023/04/30 11:52:52;;;;;;;5.03;2.10;;;16.00;52.30;;;;;;5065610;28;20055;-67
2023/04/30 11:55:20;;;;;;;5.57;2.35;;;16.20;52.40;;;;;;5046489;28;20164;-68
2023/04/30 11:57:48;;;;;;;3.15;1.90;;;16.30;51.70;;;;;;5073625;28;20116;-66
2023/04/30 12:00:15;;;;;;;5.88;2.70;;;16.30;51.30;;;;;;5055749;28;20051;-66
2023/04/30 12:02:48;;;;;;;4.47;2.30;;;16.40;52.00;;;;;;5058784;28;20826;-69
2023/04/30 12:05:14;;;;;;;3.33;1.92;;;16.30;50.40;;;;;;5057465;28;20054;-68
2023/04/30 12:07:46;;;;;;;4.95;2.50;;;16.20;50.70;;;;;;5067775;28;20081;-67
2023/04/30 12:10:11;;;;;;;2.70;2.00;;;16.30;50.50;;;;;;5050929;28;21385;-66
2023/04/30 12:12:37;;;;;;;4.90;1.85;;;16.20;50.60;;;;;;5068348;28;20093;-67
2023/04/30 12:15:25;;;;;;;3.90;2.30;;;16.30;50.60;;;;;;5049191;28;20052;-68
2023/04/30 12:17:53;;;;;;;4.22;2.33;;;16.30;52.00;;;;;;5068833;28;20044;-67
2023/04/30 12:20:20;;;;;;;6.20;2.00;;;16.50;50.90;;;;;;5041319;28;20037;-68
2023/04/30 12:22:46;;;;;;;3.25;1.88;;;16.70;50.10;;;;;;5051190;28;20139;-66
2023/04/30 12:25:22;;;;;;;4.75;1.83;;;16.80;50.20;;;;;;5044638;28;20145;-68
2023/04/30 12:27:49;;;;;;;3.20;2.03;;;16.90;49.20;;;;;;5057398;28;20032;-70
2023/04/30 12:30:20;;;;;;;3.55;2.35;;;16.70;49.00;;;;;;5057584;28;20403;-67
2023/04/30 12:32:48;;;;;;;;;;;17.20;49.70;;;;;;5054237;28;20626;-68
2023/04/30 12:35:21;;;;;;;5.13;2.17;;;17.20;48.50;;;;;;5046833;28;19920;-69
2023/04/30 12:37:53;;;;;;;4.20;1.52;;;17.30;47.80;;;;;;5039666;28;20029;-69
2023/04/30 12:40:20;;;;;;;3.88;2.00;;;17.60;48.20;;;;;;5057128;28;20115;-67
2023/04/30 12:42:46;;;;;;;4.97;1.90;;;17.60;48.00;;;;;;5064056;28;20040;-68
2023/04/30 12:45:33;;;;;;;3.53;1.80;;;18.20;46.40;;;;;;5047929;28;20064;-67
2023/04/30 12:47:59;;;;;;;5.35;2.53;;;20.00;44.10;;;;;;5058400;28;20043;-68
2023/04/30 12:50:25;;;;;;;6.53;2.35;;;22.20;40.50;;;;;;5029558;28;20040;-68
2023/04/30 12:52:50;;;;;;;3.75;2.28;;;23.10;38.10;;;;;;5056182;28;20060;-67